sensor_id;sensor_type;location;lat;lon;timestamp;temperature;humidity
12384;DHT22;6256;63.808;20.336;2023-02-13T00:00:10;1.30;99.90
12384;DHT22;6256;63.808;20.336;2023-02-13T00:02:36;1.40;99.90
12384;DHT22;6256;63.808;20.336;2023-02-13T00:05:02;1.30;99.90
12384;DHT22;6256;63.808;20.336;2023-02-13T00:07:28;1.40;99.90
12384;DHT22;6256;63.808;20.336;2023-02-13T00:09:53;1.40;99.90
12384;DHT22;6256;63.808;20.336;2023-02-13T00:12:19;1.30;99.90
12384;DHT22;6256;63.808;20.336;2023-02-13T00:14:45;1.30;99.90
12384;DHT22;6256;63.808;20.336;2023-02-13T00:17:11;1.30;99.90
12384;DHT22;6256;63.808;20.336;2023-02-13T00:19:36;1.30;99.90
12384;DHT22;6256;63.808;20.336;2023-02-13T00:22:02;1.40;99.90
12384;DHT22;6256;63.808;20.336;2023-02-13T00:24:28;1.40;99.90
12384;DHT22;6256;63.808;20.336;2023-02-13T00:26:53;1.40;99.90
12384;DHT22;6256;63.808;20.336;2023-02-13T00:29:19;1.50;99.90
12384;DHT22;6256;63.808;20.336;2023-02-13T00:31:44;1.50;99.90
12384;DHT22;6256;63.808;20.336;2023-02-13T00:34:10;1.50;99.90
12384;DHT22;6256;63.808;20.336;2023-02-13T00:36:36;1.50;99.90
12384;DHT22;6256;63.808;20.336;2023-02-13T00:39:02;1.50;99.90
12384;DHT22;6256;63.808;20.336;2023-02-13T00:41:28;1.50;99.90
12384;DHT22;6256;63.808;20.336;2023-02-13T00:43:53;1.60;99.90
12384;DHT22;6256;63.808;20.336;2023-02-13T00:46:19;1.50;99.90
12384;DHT22;6256;63.808;20.336;2023-02-13T00:48:45;1.50;99.90
12384;DHT22;6256;63.808;20.336;2023-02-13T00:51:11;1.50;99.90
12384;DHT22;6256;63.808;20.336;2023-02-13T00:53:37;1.50;99.90
12384;DHT22;6256;63.808;20.336;2023-02-13T00:56:04;1.40;99.90
12384;DHT22;6256;63.808;20.336;2023-02-13T00:58:30;1.40;99.90
12384;DHT22;6256;63.808;20.336;2023-02-13T01:00:56;1.40;99.90
12384;DHT22;6256;63.808;20.336;2023-02-13T01:03:22;1.40;99.90
12384;DHT22;6256;63.808;20.336;2023-02-13T01:05:48;1.30;99.90
12384;DHT22;6256;63.808;20.336;2023-02-13T01:08:16;1.30;99.90
12384;DHT22;6256;63.808;20.336;2023-02-13T01:10:44;1.30;99.90
12384;DHT22;6256;63.808;20.336;2023-02-13T01:13:11;1.30;99.90
12384;DHT22;6256;63.808;20.336;2023-02-13T01:15:38;1.30;99.90
12384;DHT22;6256;63.808;20.336;2023-02-13T01:18:04;1.30;99.90
12384;DHT22;6256;63.808;20.336;2023-02-13T01:20:30;1.30;99.90
12384;DHT22;6256;63.808;20.336;2023-02-13T01:22:56;1.20;99.90
12384;DHT22;6256;63.808;20.336;2023-02-13T01:25:22;1.20;99.90
12384;DHT22;6256;63.808;20.336;2023-02-13T01:27:48;1.20;99.90
12384;DHT22;6256;63.808;20.336;2023-02-13T01:30:18;1.20;99.90
12384;DHT22;6256;63.808;20.336;2023-02-13T01:32:45;1.20;99.90
12384;DHT22;6256;63.808;20.336;2023-02-13T01:35:12;1.20;99.90
12384;DHT22;6256;63.808;20.336;2023-02-13T01:37:39;1.30;99.90
12384;DHT22;6256;63.808;20.336;2023-02-13T01:40:06;1.30;99.90
12384;DHT22;6256;63.808;20.336;2023-02-13T01:42:34;1.30;99.90
12384;DHT22;6256;63.808;20.336;2023-02-13T01:45:22;1.30;99.90
12384;DHT22;6256;63.808;20.336;2023-02-13T01:48:11;1.30;99.90
12384;DHT22;6256;63.808;20.336;2023-02-13T01:50:48;1.30;99.90
12384;DHT22;6256;63.808;20.336;2023-02-13T01:58:49;1.20;99.90
12384;DHT22;6256;63.808;20.336;2023-02-13T02:01:16;1.10;99.90
12384;DHT22;6256;63.808;20.336;2023-02-13T02:03:46;1.10;99.90
12384;DHT22;6256;63.808;20.336;2023-02-13T02:06:22;1.00;99.90
12384;DHT22;6256;63.808;20.336;2023-02-13T02:08:51;1.00;99.90
12384;DHT22;6256;63.808;20.336;2023-02-13T02:11:27;0.90;99.90
12384;DHT22;6256;63.808;20.336;2023-02-13T02:13:56;0.90;99.90
12384;DHT22;6256;63.808;20.336;2023-02-13T02:16:24;0.90;99.90
12384;DHT22;6256;63.808;20.336;2023-02-13T02:18:50;0.90;99.90
12384;DHT22;6256;63.808;20.336;2023-02-13T02:32:15;0.80;99.90
12384;DHT22;6256;63.808;20.336;2023-02-13T02:43:27;0.90;99.90
12384;DHT22;6256;63.808;20.336;2023-02-13T02:46:10;0.90;99.90
12384;DHT22;6256;63.808;20.336;2023-02-13T02:52:17;0.90;99.90
12384;DHT22;6256;63.808;20.336;2023-02-13T02:54:39;0.80;99.90
12384;DHT22;6256;63.808;20.336;2023-02-13T02:57:31;0.70;99.90
12384;DHT22;6256;63.808;20.336;2023-02-13T03:00:18;0.70;99.90
12384;DHT22;6256;63.808;20.336;2023-02-13T03:03:05;0.80;99.90
12384;DHT22;6256;63.808;20.336;2023-02-13T03:05:55;0.90;99.90
12384;DHT22;6256;63.808;20.336;2023-02-13T03:08:37;1.00;99.90
12384;DHT22;6256;63.808;20.336;2023-02-13T03:11:22;1.00;99.90
12384;DHT22;6256;63.808;20.336;2023-02-13T03:14:14;1.00;99.90
12384;DHT22;6256;63.808;20.336;2023-02-13T03:16:41;1.20;99.90
12384;DHT22;6256;63.808;20.336;2023-02-13T03:19:54;1.10;99.90
12384;DHT22;6256;63.808;20.336;2023-02-13T03:32:30;1.10;99.90
12384;DHT22;6256;63.808;20.336;2023-02-13T03:35:13;1.00;99.90
12384;DHT22;6256;63.808;20.336;2023-02-13T03:38:04;0.90;99.90
12384;DHT22;6256;63.808;20.336;2023-02-13T03:43:34;1.00;99.90
12384;DHT22;6256;63.808;20.336;2023-02-13T03:46:01;0.90;99.90
12384;DHT22;6256;63.808;20.336;2023-02-13T03:48:36;1.20;99.90
12384;DHT22;6256;63.808;20.336;2023-02-13T03:55:13;1.40;99.90
12384;DHT22;6256;63.808;20.336;2023-02-13T03:57:26;1.50;99.90
12384;DHT22;6256;63.808;20.336;2023-02-13T04:00:14;1.60;99.90
12384;DHT22;6256;63.808;20.336;2023-02-13T04:02:57;1.70;99.90
12384;DHT22;6256;63.808;20.336;2023-02-13T04:05:27;1.50;99.90
12384;DHT22;6256;63.808;20.336;2023-02-13T04:07:54;1.80;99.90
12384;DHT22;6256;63.808;20.336;2023-02-13T04:10:21;1.70;99.90
12384;DHT22;6256;63.808;20.336;2023-02-13T04:13:22;2.00;99.90
12384;DHT22;6256;63.808;20.336;2023-02-13T04:16:05;2.00;99.90
12384;DHT22;6256;63.808;20.336;2023-02-13T04:18:34;1.90;99.90
12384;DHT22;6256;63.808;20.336;2023-02-13T04:21:04;1.90;99.90
12384;DHT22;6256;63.808;20.336;2023-02-13T04:23:30;1.80;99.90
12384;DHT22;6256;63.808;20.336;2023-02-13T04:25:56;1.90;99.90
12384;DHT22;6256;63.808;20.336;2023-02-13T04:28:24;1.90;99.90
12384;DHT22;6256;63.808;20.336;2023-02-13T04:30:49;2.00;99.90
12384;DHT22;6256;63.808;20.336;2023-02-13T04:33:15;2.00;99.90
12384;DHT22;6256;63.808;20.336;2023-02-13T04:35:41;2.10;99.90
12384;DHT22;6256;63.808;20.336;2023-02-13T04:38:07;2.20;99.90
12384;DHT22;6256;63.808;20.336;2023-02-13T04:40:32;2.30;99.90
12384;DHT22;6256;63.808;20.336;2023-02-13T04:42:58;2.10;99.90
12384;DHT22;6256;63.808;20.336;2023-02-13T04:45:24;2.10;99.90
12384;DHT22;6256;63.808;20.336;2023-02-13T04:47:51;2.10;99.90
12384;DHT22;6256;63.808;20.336;2023-02-13T04:50:17;2.10;99.90
12384;DHT22;6256;63.808;20.336;2023-02-13T04:52:43;2.10;99.90
12384;DHT22;6256;63.808;20.336;2023-02-13T04:55:09;1.90;99.90
12384;DHT22;6256;63.808;20.336;2023-02-13T04:57:34;1.80;99.90
12384;DHT22;6256;63.808;20.336;2023-02-13T05:00:00;2.00;99.90
12384;DHT22;6256;63.808;20.336;2023-02-13T05:02:26;2.00;99.90
12384;DHT22;6256;63.808;20.336;2023-02-13T05:04:51;2.10;99.90
12384;DHT22;6256;63.808;20.336;2023-02-13T05:07:17;2.00;99.90
12384;DHT22;6256;63.808;20.336;2023-02-13T05:09:43;2.00;99.90
12384;DHT22;6256;63.808;20.336;2023-02-13T05:12:08;1.90;99.90
12384;DHT22;6256;63.808;20.336;2023-02-13T05:14:34;1.80;99.90
12384;DHT22;6256;63.808;20.336;2023-02-13T05:17:00;1.80;99.90
12384;DHT22;6256;63.808;20.336;2023-02-13T05:19:25;1.80;99.90
12384;DHT22;6256;63.808;20.336;2023-02-13T05:21:51;1.80;99.90
12384;DHT22;6256;63.808;20.336;2023-02-13T05:24:35;1.70;99.90
12384;DHT22;6256;63.808;20.336;2023-02-13T05:27:01;1.70;99.90
12384;DHT22;6256;63.808;20.336;2023-02-13T05:29:26;1.70;99.90
12384;DHT22;6256;63.808;20.336;2023-02-13T05:31:54;1.80;99.90
12384;DHT22;6256;63.808;20.336;2023-02-13T05:34:20;1.80;99.90
12384;DHT22;6256;63.808;20.336;2023-02-13T05:36:46;1.80;99.90
12384;DHT22;6256;63.808;20.336;2023-02-13T05:39:12;1.70;99.90
12384;DHT22;6256;63.808;20.336;2023-02-13T05:41:40;1.70;99.90
12384;DHT22;6256;63.808;20.336;2023-02-13T05:44:06;1.60;99.90
12384;DHT22;6256;63.808;20.336;2023-02-13T05:46:32;1.70;99.90
12384;DHT22;6256;63.808;20.336;2023-02-13T05:48:58;1.70;99.90
12384;DHT22;6256;63.808;20.336;2023-02-13T05:51:24;1.90;99.90
12384;DHT22;6256;63.808;20.336;2023-02-13T05:53:50;2.30;99.90
12384;DHT22;6256;63.808;20.336;2023-02-13T05:56:16;2.90;99.90
12384;DHT22;6256;63.808;20.336;2023-02-13T05:58:41;3.00;99.90
12384;DHT22;6256;63.808;20.336;2023-02-13T06:01:07;3.10;99.90
12384;DHT22;6256;63.808;20.336;2023-02-13T06:03:33;3.40;99.90
12384;DHT22;6256;63.808;20.336;2023-02-13T06:05:58;3.50;99.90
12384;DHT22;6256;63.808;20.336;2023-02-13T06:08:24;3.60;99.90
12384;DHT22;6256;63.808;20.336;2023-02-13T06:10:50;3.40;99.90
12384;DHT22;6256;63.808;20.336;2023-02-13T06:13:16;3.60;99.90
12384;DHT22;6256;63.808;20.336;2023-02-13T06:15:42;3.60;99.90
12384;DHT22;6256;63.808;20.336;2023-02-13T06:18:08;3.60;99.90
12384;DHT22;6256;63.808;20.336;2023-02-13T06:20:34;3.50;99.90
12384;DHT22;6256;63.808;20.336;2023-02-13T06:23:00;3.50;99.90
12384;DHT22;6256;63.808;20.336;2023-02-13T06:25:26;3.30;99.90
12384;DHT22;6256;63.808;20.336;2023-02-13T06:27:52;3.30;99.90
12384;DHT22;6256;63.808;20.336;2023-02-13T06:30:18;3.40;99.90
12384;DHT22;6256;63.808;20.336;2023-02-13T06:32:46;3.30;99.90
12384;DHT22;6256;63.808;20.336;2023-02-13T06:35:12;3.50;99.90
12384;DHT22;6256;63.808;20.336;2023-02-13T06:37:38;3.30;99.90
12384;DHT22;6256;63.808;20.336;2023-02-13T06:40:05;3.20;99.90
12384;DHT22;6256;63.808;20.336;2023-02-13T06:42:31;3.30;99.90
12384;DHT22;6256;63.808;20.336;2023-02-13T06:44:57;3.30;99.90
12384;DHT22;6256;63.808;20.336;2023-02-13T06:47:23;3.30;99.90
12384;DHT22;6256;63.808;20.336;2023-02-13T06:49:49;3.60;99.90
12384;DHT22;6256;63.808;20.336;2023-02-13T06:52:15;3.50;99.90
12384;DHT22;6256;63.808;20.336;2023-02-13T06:54:41;3.70;99.90
12384;DHT22;6256;63.808;20.336;2023-02-13T06:57:07;3.70;99.90
12384;DHT22;6256;63.808;20.336;2023-02-13T06:59:32;3.90;99.90
12384;DHT22;6256;63.808;20.336;2023-02-13T07:01:58;4.00;99.90
12384;DHT22;6256;63.808;20.336;2023-02-13T07:04:24;3.90;99.90
12384;DHT22;6256;63.808;20.336;2023-02-13T07:06:49;4.00;99.90
12384;DHT22;6256;63.808;20.336;2023-02-13T07:09:18;4.00;99.90
12384;DHT22;6256;63.808;20.336;2023-02-13T07:11:43;4.10;99.90
12384;DHT22;6256;63.808;20.336;2023-02-13T07:14:09;4.00;99.90
12384;DHT22;6256;63.808;20.336;2023-02-13T07:16:35;3.90;99.90
12384;DHT22;6256;63.808;20.336;2023-02-13T07:19:00;4.00;99.90
12384;DHT22;6256;63.808;20.336;2023-02-13T07:21:26;3.90;99.90
12384;DHT22;6256;63.808;20.336;2023-02-13T07:23:52;3.90;99.90
12384;DHT22;6256;63.808;20.336;2023-02-13T07:26:18;4.00;99.90
12384;DHT22;6256;63.808;20.336;2023-02-13T07:28:43;4.00;99.90
12384;DHT22;6256;63.808;20.336;2023-02-13T07:31:09;3.70;99.90
12384;DHT22;6256;63.808;20.336;2023-02-13T07:33:36;3.60;99.90
12384;DHT22;6256;63.808;20.336;2023-02-13T07:36:02;3.60;99.90
12384;DHT22;6256;63.808;20.336;2023-02-13T07:38:29;3.60;99.90
12384;DHT22;6256;63.808;20.336;2023-02-13T07:40:58;3.70;99.90
12384;DHT22;6256;63.808;20.336;2023-02-13T07:43:24;3.80;99.90
12384;DHT22;6256;63.808;20.336;2023-02-13T07:45:49;3.80;99.90
12384;DHT22;6256;63.808;20.336;2023-02-13T07:48:23;4.00;99.90
12384;DHT22;6256;63.808;20.336;2023-02-13T07:50:49;4.10;99.90
12384;DHT22;6256;63.808;20.336;2023-02-13T07:53:15;4.20;99.90
12384;DHT22;6256;63.808;20.336;2023-02-13T07:55:41;4.30;99.90
12384;DHT22;6256;63.808;20.336;2023-02-13T07:58:07;4.50;99.90
12384;DHT22;6256;63.808;20.336;2023-02-13T08:00:32;4.40;99.90
12384;DHT22;6256;63.808;20.336;2023-02-13T08:02:59;4.60;99.90
12384;DHT22;6256;63.808;20.336;2023-02-13T08:05:25;4.60;99.90
12384;DHT22;6256;63.808;20.336;2023-02-13T08:07:51;4.80;99.90
12384;DHT22;6256;63.808;20.336;2023-02-13T08:10:18;4.90;99.90
12384;DHT22;6256;63.808;20.336;2023-02-13T08:13:03;5.00;99.90
12384;DHT22;6256;63.808;20.336;2023-02-13T08:15:29;5.10;99.90
12384;DHT22;6256;63.808;20.336;2023-02-13T08:17:54;5.00;99.90
12384;DHT22;6256;63.808;20.336;2023-02-13T08:20:20;5.00;99.90
12384;DHT22;6256;63.808;20.336;2023-02-13T08:22:46;5.00;99.90
12384;DHT22;6256;63.808;20.336;2023-02-13T08:25:12;5.10;99.90
12384;DHT22;6256;63.808;20.336;2023-02-13T08:27:38;5.00;99.90
12384;DHT22;6256;63.808;20.336;2023-02-13T08:30:05;5.00;99.90
12384;DHT22;6256;63.808;20.336;2023-02-13T08:32:31;5.00;99.90
12384;DHT22;6256;63.808;20.336;2023-02-13T08:34:56;5.00;99.90
12384;DHT22;6256;63.808;20.336;2023-02-13T08:37:23;5.00;99.90
12384;DHT22;6256;63.808;20.336;2023-02-13T08:39:48;5.10;99.90
12384;DHT22;6256;63.808;20.336;2023-02-13T08:42:14;5.00;99.90
12384;DHT22;6256;63.808;20.336;2023-02-13T08:44:40;5.10;99.90
12384;DHT22;6256;63.808;20.336;2023-02-13T08:47:07;5.20;99.90
12384;DHT22;6256;63.808;20.336;2023-02-13T08:49:33;5.10;99.90
12384;DHT22;6256;63.808;20.336;2023-02-13T08:51:59;5.20;99.90
12384;DHT22;6256;63.808;20.336;2023-02-13T08:54:26;5.20;99.90
12384;DHT22;6256;63.808;20.336;2023-02-13T08:56:54;5.30;99.90
12384;DHT22;6256;63.808;20.336;2023-02-13T08:59:20;5.30;99.90
12384;DHT22;6256;63.808;20.336;2023-02-13T09:01:46;5.30;99.90
12384;DHT22;6256;63.808;20.336;2023-02-13T09:04:12;5.30;99.90
12384;DHT22;6256;63.808;20.336;2023-02-13T09:06:41;5.30;99.90
12384;DHT22;6256;63.808;20.336;2023-02-13T09:09:06;5.40;99.90
12384;DHT22;6256;63.808;20.336;2023-02-13T09:11:32;5.40;99.90
12384;DHT22;6256;63.808;20.336;2023-02-13T09:13:58;5.40;99.90
12384;DHT22;6256;63.808;20.336;2023-02-13T09:16:24;5.40;99.90
12384;DHT22;6256;63.808;20.336;2023-02-13T09:18:50;5.30;99.90
12384;DHT22;6256;63.808;20.336;2023-02-13T09:21:18;5.50;99.90
12384;DHT22;6256;63.808;20.336;2023-02-13T09:23:44;5.50;99.90
12384;DHT22;6256;63.808;20.336;2023-02-13T09:26:12;5.60;99.90
12384;DHT22;6256;63.808;20.336;2023-02-13T09:28:38;5.60;99.90
12384;DHT22;6256;63.808;20.336;2023-02-13T09:31:17;5.50;99.90
12384;DHT22;6256;63.808;20.336;2023-02-13T09:33:44;5.50;99.90
12384;DHT22;6256;63.808;20.336;2023-02-13T09:36:15;5.60;99.90
12384;DHT22;6256;63.808;20.336;2023-02-13T09:38:44;5.60;99.90
12384;DHT22;6256;63.808;20.336;2023-02-13T09:43:57;5.60;99.90
12384;DHT22;6256;63.808;20.336;2023-02-13T09:46:36;5.70;99.90
12384;DHT22;6256;63.808;20.336;2023-02-13T09:49:10;5.70;99.90
12384;DHT22;6256;63.808;20.336;2023-02-13T09:51:37;5.70;99.90
12384;DHT22;6256;63.808;20.336;2023-02-13T09:54:07;5.70;99.90
12384;DHT22;6256;63.808;20.336;2023-02-13T10:01:43;5.70;99.90
12384;DHT22;6256;63.808;20.336;2023-02-13T10:07:30;5.80;99.90
12384;DHT22;6256;63.808;20.336;2023-02-13T10:18:13;6.00;99.90
12384;DHT22;6256;63.808;20.336;2023-02-13T10:20:44;6.10;99.90
12384;DHT22;6256;63.808;20.336;2023-02-13T10:23:18;6.10;99.90
12384;DHT22;6256;63.808;20.336;2023-02-13T10:26:03;6.20;99.90
12384;DHT22;6256;63.808;20.336;2023-02-13T10:28:37;6.30;99.90
12384;DHT22;6256;63.808;20.336;2023-02-13T10:31:11;6.40;99.90
12384;DHT22;6256;63.808;20.336;2023-02-13T10:33:59;6.40;99.90
12384;DHT22;6256;63.808;20.336;2023-02-13T10:36:30;6.40;99.90
12384;DHT22;6256;63.808;20.336;2023-02-13T10:39:11;6.40;99.90
12384;DHT22;6256;63.808;20.336;2023-02-13T10:41:51;6.40;99.90
12384;DHT22;6256;63.808;20.336;2023-02-13T10:44:48;6.30;99.90
12384;DHT22;6256;63.808;20.336;2023-02-13T10:50:22;6.30;99.90
12384;DHT22;6256;63.808;20.336;2023-02-13T11:01:52;6.50;99.90
12384;DHT22;6256;63.808;20.336;2023-02-13T11:04:20;6.60;99.90
12384;DHT22;6256;63.808;20.336;2023-02-13T11:09:23;6.80;99.90
12384;DHT22;6256;63.808;20.336;2023-02-13T11:11:49;6.90;99.40
12384;DHT22;6256;63.808;20.336;2023-02-13T11:14:23;6.90;99.50
12384;DHT22;6256;63.808;20.336;2023-02-13T11:17:02;7.20;99.90
12384;DHT22;6256;63.808;20.336;2023-02-13T11:19:49;7.30;99.10
12384;DHT22;6256;63.808;20.336;2023-02-13T11:22:38;7.40;99.80
12384;DHT22;6256;63.808;20.336;2023-02-13T11:25:22;7.30;98.80
12384;DHT22;6256;63.808;20.336;2023-02-13T11:27:50;7.30;99.10
12384;DHT22;6256;63.808;20.336;2023-02-13T11:30:33;7.20;99.30
12384;DHT22;6256;63.808;20.336;2023-02-13T11:33:01;7.10;98.90
12384;DHT22;6256;63.808;20.336;2023-02-13T11:35:33;7.20;98.80
12384;DHT22;6256;63.808;20.336;2023-02-13T11:40:50;7.20;99.20
12384;DHT22;6256;63.808;20.336;2023-02-13T11:43:26;7.20;99.20
12384;DHT22;6256;63.808;20.336;2023-02-13T11:46:01;7.20;98.40
12384;DHT22;6256;63.808;20.336;2023-02-13T11:48:27;7.30;99.40
12384;DHT22;6256;63.808;20.336;2023-02-13T11:50:54;7.40;99.90
12384;DHT22;6256;63.808;20.336;2023-02-13T11:53:26;7.30;99.00
12384;DHT22;6256;63.808;20.336;2023-02-13T11:56:12;7.20;98.70
12384;DHT22;6256;63.808;20.336;2023-02-13T11:58:38;7.20;98.60
12384;DHT22;6256;63.808;20.336;2023-02-13T12:07:01;7.30;98.20
12384;DHT22;6256;63.808;20.336;2023-02-13T12:09:29;7.20;98.50
12384;DHT22;6256;63.808;20.336;2023-02-13T12:11:57;7.00;98.10
12384;DHT22;6256;63.808;20.336;2023-02-13T12:14:33;7.10;98.80
12384;DHT22;6256;63.808;20.336;2023-02-13T12:17:05;7.00;98.20
12384;DHT22;6256;63.808;20.336;2023-02-13T12:19:41;7.10;98.60
12384;DHT22;6256;63.808;20.336;2023-02-13T12:30:44;6.90;99.20
12384;DHT22;6256;63.808;20.336;2023-02-13T12:33:36;6.80;98.50
12384;DHT22;6256;63.808;20.336;2023-02-13T12:41:56;6.60;98.10
12384;DHT22;6256;63.808;20.336;2023-02-13T12:47:29;6.60;98.70
12384;DHT22;6256;63.808;20.336;2023-02-13T12:56:11;6.50;99.90
12384;DHT22;6256;63.808;20.336;2023-02-13T13:20:56;6.20;98.80
12384;DHT22;6256;63.808;20.336;2023-02-13T13:23:47;6.10;99.00
12384;DHT22;6256;63.808;20.336;2023-02-13T13:26:40;6.10;98.90
12384;DHT22;6256;63.808;20.336;2023-02-13T13:29:11;6.10;99.50
12384;DHT22;6256;63.808;20.336;2023-02-13T13:31:40;6.00;99.90
12384;DHT22;6256;63.808;20.336;2023-02-13T13:34:13;5.90;99.90
12384;DHT22;6256;63.808;20.336;2023-02-13T13:36:56;5.90;99.90
12384;DHT22;6256;63.808;20.336;2023-02-13T13:42:07;6.00;99.70
12384;DHT22;6256;63.808;20.336;2023-02-13T13:44:46;6.00;99.00
12384;DHT22;6256;63.808;20.336;2023-02-13T13:50:26;6.00;99.40
12384;DHT22;6256;63.808;20.336;2023-02-13T13:53:06;6.00;99.20
12384;DHT22;6256;63.808;20.336;2023-02-13T13:58:44;6.00;99.50
12384;DHT22;6256;63.808;20.336;2023-02-13T14:01:28;6.00;98.70
12384;DHT22;6256;63.808;20.336;2023-02-13T14:04:02;5.90;99.00
12384;DHT22;6256;63.808;20.336;2023-02-13T14:09:37;5.80;99.70
12384;DHT22;6256;63.808;20.336;2023-02-13T14:14:57;5.70;99.80
12384;DHT22;6256;63.808;20.336;2023-02-13T14:20:40;5.60;99.60
12384;DHT22;6256;63.808;20.336;2023-02-13T14:26:24;5.60;99.70
12384;DHT22;6256;63.808;20.336;2023-02-13T14:31:39;5.50;99.30
12384;DHT22;6256;63.808;20.336;2023-02-13T14:36:48;5.50;99.20
12384;DHT22;6256;63.808;20.336;2023-02-13T14:39:33;5.50;98.80
12384;DHT22;6256;63.808;20.336;2023-02-13T14:42:27;5.40;99.50
12384;DHT22;6256;63.808;20.336;2023-02-13T14:44:56;5.30;99.60
12384;DHT22;6256;63.808;20.336;2023-02-13T14:47:30;5.30;99.60
12384;DHT22;6256;63.808;20.336;2023-02-13T14:49:58;5.20;99.90
12384;DHT22;6256;63.808;20.336;2023-02-13T14:52:30;5.10;99.90
12384;DHT22;6256;63.808;20.336;2023-02-13T14:55:07;5.10;99.90
12384;DHT22;6256;63.808;20.336;2023-02-13T14:57:41;5.10;99.90
12384;DHT22;6256;63.808;20.336;2023-02-13T15:00:25;5.00;99.90
12384;DHT22;6256;63.808;20.336;2023-02-13T15:02:58;4.90;99.90
12384;DHT22;6256;63.808;20.336;2023-02-13T15:05:34;4.70;99.90
12384;DHT22;6256;63.808;20.336;2023-02-13T15:08:13;4.70;99.90
12384;DHT22;6256;63.808;20.336;2023-02-13T15:10:45;4.60;99.90
12384;DHT22;6256;63.808;20.336;2023-02-13T15:13:17;4.60;99.90
12384;DHT22;6256;63.808;20.336;2023-02-13T15:15:52;4.60;99.90
12384;DHT22;6256;63.808;20.336;2023-02-13T15:18:23;4.60;99.90
12384;DHT22;6256;63.808;20.336;2023-02-13T15:20:55;4.60;99.90
12384;DHT22;6256;63.808;20.336;2023-02-13T15:23:25;4.60;99.90
12384;DHT22;6256;63.808;20.336;2023-02-13T15:26:00;4.60;99.90
12384;DHT22;6256;63.808;20.336;2023-02-13T15:28:27;4.60;99.90
12384;DHT22;6256;63.808;20.336;2023-02-13T15:33:25;4.60;99.90
12384;DHT22;6256;63.808;20.336;2023-02-13T15:36:04;4.50;99.90
12384;DHT22;6256;63.808;20.336;2023-02-13T15:38:35;4.50;99.90
12384;DHT22;6256;63.808;20.336;2023-02-13T15:41:15;4.50;99.90
12384;DHT22;6256;63.808;20.336;2023-02-13T15:43:44;4.40;99.90
12384;DHT22;6256;63.808;20.336;2023-02-13T15:46:34;4.40;99.90
12384;DHT22;6256;63.808;20.336;2023-02-13T15:49:04;4.30;99.90
12384;DHT22;6256;63.808;20.336;2023-02-13T15:51:31;4.20;99.90
12384;DHT22;6256;63.808;20.336;2023-02-13T15:54:20;4.30;99.90
12384;DHT22;6256;63.808;20.336;2023-02-13T15:56:47;4.30;99.90
12384;DHT22;6256;63.808;20.336;2023-02-13T15:59:14;4.30;99.90
12384;DHT22;6256;63.808;20.336;2023-02-13T16:01:43;4.40;99.90
12384;DHT22;6256;63.808;20.336;2023-02-13T16:04:12;4.30;99.90
12384;DHT22;6256;63.808;20.336;2023-02-13T16:06:41;4.30;99.90
12384;DHT22;6256;63.808;20.336;2023-02-13T16:09:30;4.30;99.90
12384;DHT22;6256;63.808;20.336;2023-02-13T16:12:22;4.30;99.90
12384;DHT22;6256;63.808;20.336;2023-02-13T16:15:00;4.20;99.90
12384;DHT22;6256;63.808;20.336;2023-02-13T16:20:04;4.20;99.90
12384;DHT22;6256;63.808;20.336;2023-02-13T16:27:56;4.10;99.90
12384;DHT22;6256;63.808;20.336;2023-02-13T16:32:48;4.00;99.90
12384;DHT22;6256;63.808;20.336;2023-02-13T16:35:16;3.90;99.90
12384;DHT22;6256;63.808;20.336;2023-02-13T16:37:58;3.90;99.90
12384;DHT22;6256;63.808;20.336;2023-02-13T16:40:36;3.90;99.90
12384;DHT22;6256;63.808;20.336;2023-02-13T16:43:35;3.90;99.90
12384;DHT22;6256;63.808;20.336;2023-02-13T16:54:31;3.90;99.90
12384;DHT22;6256;63.808;20.336;2023-02-13T17:02:33;3.80;99.90
12384;DHT22;6256;63.808;20.336;2023-02-13T17:10:07;3.60;99.90
12384;DHT22;6256;63.808;20.336;2023-02-13T17:12:37;3.50;99.90
12384;DHT22;6256;63.808;20.336;2023-02-13T17:15:04;3.50;99.90
12384;DHT22;6256;63.808;20.336;2023-02-13T17:17:32;3.50;99.90
12384;DHT22;6256;63.808;20.336;2023-02-13T17:19:58;3.50;99.90
12384;DHT22;6256;63.808;20.336;2023-02-13T17:24:56;3.40;99.90
12384;DHT22;6256;63.808;20.336;2023-02-13T17:27:22;3.40;99.90
12384;DHT22;6256;63.808;20.336;2023-02-13T17:29:48;3.40;99.90
12384;DHT22;6256;63.808;20.336;2023-02-13T17:32:17;3.50;99.90
12384;DHT22;6256;63.808;20.336;2023-02-13T17:34:44;3.40;99.90
12384;DHT22;6256;63.808;20.336;2023-02-13T17:37:19;3.30;99.90
12384;DHT22;6256;63.808;20.336;2023-02-13T17:39:45;3.30;99.90
12384;DHT22;6256;63.808;20.336;2023-02-13T17:42:15;3.30;99.90
12384;DHT22;6256;63.808;20.336;2023-02-13T17:44:42;3.30;99.90
12384;DHT22;6256;63.808;20.336;2023-02-13T17:47:07;3.30;99.90
12384;DHT22;6256;63.808;20.336;2023-02-13T17:49:33;3.20;99.90
12384;DHT22;6256;63.808;20.336;2023-02-13T17:51:59;3.10;99.90
12384;DHT22;6256;63.808;20.336;2023-02-13T17:54:25;3.10;99.90
12384;DHT22;6256;63.808;20.336;2023-02-13T17:56:51;3.00;99.90
12384;DHT22;6256;63.808;20.336;2023-02-13T17:59:17;2.90;99.90
12384;DHT22;6256;63.808;20.336;2023-02-13T18:01:43;2.90;99.90
12384;DHT22;6256;63.808;20.336;2023-02-13T18:04:08;2.70;99.90
12384;DHT22;6256;63.808;20.336;2023-02-13T18:06:34;2.60;99.90
12384;DHT22;6256;63.808;20.336;2023-02-13T18:08:59;2.40;99.90
12384;DHT22;6256;63.808;20.336;2023-02-13T18:11:25;2.30;99.90
12384;DHT22;6256;63.808;20.336;2023-02-13T18:13:51;2.10;99.90
12384;DHT22;6256;63.808;20.336;2023-02-13T18:16:16;2.10;99.90
12384;DHT22;6256;63.808;20.336;2023-02-13T18:18:42;2.00;99.90
12384;DHT22;6256;63.808;20.336;2023-02-13T18:21:08;2.00;99.90
12384;DHT22;6256;63.808;20.336;2023-02-13T18:23:33;1.90;99.90
12384;DHT22;6256;63.808;20.336;2023-02-13T18:26:04;1.90;99.90
12384;DHT22;6256;63.808;20.336;2023-02-13T18:28:30;1.70;99.90
12384;DHT22;6256;63.808;20.336;2023-02-13T18:30:56;1.70;99.90
12384;DHT22;6256;63.808;20.336;2023-02-13T18:33:21;1.70;99.90
12384;DHT22;6256;63.808;20.336;2023-02-13T18:35:47;1.70;99.90
12384;DHT22;6256;63.808;20.336;2023-02-13T18:38:13;1.60;99.90
12384;DHT22;6256;63.808;20.336;2023-02-13T18:40:39;1.60;99.90
12384;DHT22;6256;63.808;20.336;2023-02-13T18:43:08;1.60;99.90
12384;DHT22;6256;63.808;20.336;2023-02-13T18:45:35;1.60;99.90
12384;DHT22;6256;63.808;20.336;2023-02-13T18:48:01;1.60;99.90
12384;DHT22;6256;63.808;20.336;2023-02-13T18:50:27;1.80;99.90
12384;DHT22;6256;63.808;20.336;2023-02-13T18:52:53;1.80;99.90
12384;DHT22;6256;63.808;20.336;2023-02-13T18:55:19;2.00;99.90
12384;DHT22;6256;63.808;20.336;2023-02-13T18:57:44;1.90;99.90
12384;DHT22;6256;63.808;20.336;2023-02-13T19:00:11;1.80;99.90
12384;DHT22;6256;63.808;20.336;2023-02-13T19:02:38;1.70;99.90
12384;DHT22;6256;63.808;20.336;2023-02-13T19:05:04;1.50;99.90
12384;DHT22;6256;63.808;20.336;2023-02-13T19:07:30;1.40;99.90
12384;DHT22;6256;63.808;20.336;2023-02-13T19:09:56;1.30;99.90
12384;DHT22;6256;63.808;20.336;2023-02-13T19:12:22;1.30;99.90
12384;DHT22;6256;63.808;20.336;2023-02-13T19:14:48;1.20;99.90
12384;DHT22;6256;63.808;20.336;2023-02-13T19:17:13;1.10;99.90